createdAt,value
2018-11-20T00:00:41.333Z,4.90
2018-11-20T00:03:43.803Z,4.67
2018-11-20T00:06:32.688Z,4.10
2018-11-20T00:09:34.898Z,3.90
2018-11-20T00:12:35.527Z,3.77
2018-11-20T00:15:26.771Z,4.77
2018-11-20T00:18:21.671Z,5.43
2018-11-20T00:21:17.840Z,5.30
2018-11-20T00:24:01.434Z,3.70
2018-11-20T00:26:51.823Z,4.30
2018-11-20T00:29:42.325Z,4.47
2018-11-20T00:32:35.543Z,4.10
2018-11-20T00:35:25.065Z,4.60
2018-11-20T00:38:15.929Z,3.80
2018-11-20T00:41:09.501Z,4.10
2018-11-20T00:44:11.821Z,3.73
2018-11-20T00:47:03.854Z,3.73
2018-11-20T00:49:54.229Z,3.77
2018-11-20T00:53:02.720Z,4.60
2018-11-20T00:57:41.817Z,4.10
2018-11-20T01:00:28.606Z,3.30
2018-11-20T01:03:14.508Z,3.93
2018-11-20T01:06:02.281Z,3.93
2018-11-20T01:09:01.050Z,4.30
2018-11-20T01:11:50.682Z,6.17
2018-11-20T01:14:43.478Z,6.00
2018-11-20T01:17:31.673Z,4.40
2018-11-20T01:20:39.464Z,5.10
2018-11-20T01:23:29.068Z,5.67
2018-11-20T01:26:15.487Z,5.40
2018-11-20T01:29:03.469Z,5.77
2018-11-20T01:32:11.786Z,5.77
2018-11-20T01:35:01.377Z,5.13
2018-11-20T01:37:45.712Z,6.37
2018-11-20T01:40:44.123Z,5.53
2018-11-20T01:43:36.501Z,5.80
2018-11-20T01:46:25.155Z,5.87
2018-11-20T01:49:15.147Z,6.43
2018-11-20T01:51:54.853Z,5.97
2018-11-20T01:54:53.421Z,7.13
2018-11-20T01:57:41.497Z,4.50
2018-11-20T02:00:24.006Z,4.50
2018-11-20T02:03:12.051Z,3.47
2018-11-20T02:06:07.630Z,5.50
2018-11-20T02:08:55.040Z,5.50
2018-11-20T02:11:43.457Z,5.87
2018-11-20T02:14:27.819Z,4.40
2018-11-20T02:17:31.813Z,3.93
2018-11-20T02:20:21.047Z,3.80
2018-11-20T02:23:09.067Z,3.90
2018-11-20T02:25:57.007Z,3.73
2018-11-20T02:28:49.343Z,4.43
2018-11-20T02:31:37.502Z,4.37
2018-11-20T02:34:27.105Z,4.13
2018-11-20T02:37:15.011Z,4.93
2018-11-20T02:40:05.541Z,3.40
2018-11-20T02:42:57.779Z,3.87
2018-11-20T02:45:54.188Z,4.17
2018-11-20T02:48:43.962Z,4.80
2018-11-20T02:51:32.348Z,4.33
2018-11-20T02:54:27.962Z,4.57
2018-11-20T02:57:16.343Z,4.70
2018-11-20T03:00:09.061Z,3.67
2018-11-20T03:02:56.949Z,4.20
2018-11-20T03:05:47.204Z,4.67
2018-11-20T03:08:25.849Z,4.00
2018-11-20T03:11:21.409Z,4.33
2018-11-20T03:14:09.326Z,4.10
2018-11-20T03:16:57.545Z,3.67
2018-11-20T03:19:50.127Z,4.00
2018-11-20T03:22:42.478Z,3.10
2018-11-20T03:25:55.578Z,3.50
2018-11-20T03:28:45.150Z,3.33
2018-11-20T03:31:40.824Z,3.10
2018-11-20T03:34:29.109Z,4.73
2018-11-20T03:37:27.908Z,4.67
2018-11-20T03:40:15.604Z,4.07
2018-11-20T03:43:08.293Z,4.73
2018-11-20T03:45:56.303Z,5.30
2018-11-20T03:48:44.551Z,5.40
2018-11-20T03:51:32.734Z,5.93
2018-11-20T03:54:24.919Z,4.90
2018-11-20T03:57:20.135Z,5.00
2018-11-20T04:00:09.886Z,4.80
2018-11-20T04:02:55.671Z,4.83
2018-11-20T04:05:42.128Z,5.47
2018-11-20T04:08:30.244Z,5.37
2018-11-20T04:11:27.802Z,5.40
2018-11-20T04:14:15.626Z,5.50
2018-11-20T04:17:06.199Z,5.80
2018-11-20T04:19:54.865Z,6.53
2018-11-20T04:22:38.855Z,7.13
2018-11-20T04:25:28.461Z,7.07
2018-11-20T04:28:18.553Z,6.87
2018-11-20T04:31:39.939Z,6.07
2018-11-20T04:34:29.605Z,7.10
2018-11-20T04:37:26.736Z,8.23
2018-11-20T04:40:16.440Z,7.00
2018-11-20T04:43:03.368Z,6.13
2018-11-20T04:45:53.071Z,6.60
2018-11-20T04:48:42.700Z,5.33
2018-11-20T04:51:38.283Z,5.73
2018-11-20T04:54:42.818Z,5.93
2018-11-20T04:57:38.277Z,6.23
2018-11-20T05:00:28.433Z,5.60
2018-11-20T05:03:16.398Z,6.87
2018-11-20T05:06:06.013Z,6.37
2018-11-20T05:08:53.202Z,5.93
2018-11-20T05:11:41.077Z,6.33
2018-11-20T05:14:39.685Z,7.67
2018-11-20T05:17:20.598Z,8.73
2018-11-20T05:20:19.446Z,8.30
2018-11-20T05:23:01.923Z,7.27
2018-11-20T05:26:00.469Z,7.13
2018-11-20T05:29:00.549Z,7.40
2018-11-20T05:31:54.016Z,7.63
2018-11-20T05:34:40.044Z,7.83
2018-11-20T05:37:27.295Z,7.97
2018-11-20T05:40:16.803Z,8.07
2018-11-20T05:43:05.037Z,7.80
2018-11-20T05:46:00.591Z,7.87
2018-11-20T05:48:48.574Z,7.27
2018-11-20T05:51:38.151Z,7.53
2018-11-20T05:54:31.200Z,6.87
2018-11-20T05:57:32.795Z,7.27
2018-11-20T06:00:20.017Z,7.37
2018-11-20T06:03:09.635Z,8.23
2018-11-20T06:06:02.270Z,7.57
2018-11-20T06:08:51.787Z,6.00
2018-11-20T06:11:39.778Z,7.53
2018-11-20T06:14:38.185Z,7.53
2018-11-20T06:17:26.423Z,7.53
2018-11-20T06:20:16.011Z,7.67
2018-11-20T06:23:14.350Z,7.60
2018-11-20T06:26:16.178Z,8.37
2018-11-20T06:29:04.063Z,7.10
2018-11-20T06:31:48.487Z,6.33
2018-11-20T06:34:36.598Z,6.77
2018-11-20T06:37:29.051Z,6.63
2018-11-20T06:40:17.219Z,6.30
2018-11-20T06:43:12.486Z,7.53
2018-11-20T06:46:01.906Z,8.97
2018-11-20T06:48:49.941Z,8.80
2018-11-20T06:51:54.697Z,9.63
2018-11-20T06:54:42.806Z,9.43
2018-11-20T06:57:32.892Z,8.50
2018-11-20T07:00:27.547Z,9.93
2018-11-20T07:03:23.904Z,8.27
2018-11-20T07:06:29.801Z,6.77
2018-11-20T07:09:17.790Z,6.80
2018-11-20T07:12:25.631Z,7.00
2018-11-20T07:15:20.889Z,6.47
2018-11-20T07:18:22.478Z,6.37
2018-11-20T07:21:20.807Z,5.90
2018-11-20T07:24:16.400Z,5.73
2018-11-20T07:26:58.785Z,5.60
2018-11-20T07:29:47.059Z,5.50
2018-11-20T07:32:34.844Z,6.00
2018-11-20T07:35:30.353Z,5.60
2018-11-20T07:38:18.361Z,6.27
2018-11-20T07:41:13.855Z,6.70
2018-11-20T07:44:18.622Z,6.40
2018-11-20T07:47:10.982Z,6.87
2018-11-20T07:50:00.716Z,6.83
2018-11-20T07:52:53.225Z,6.50
2018-11-20T07:55:45.994Z,6.30
2018-11-20T07:58:35.704Z,6.07
2018-11-20T08:01:37.642Z,7.80
2018-11-20T08:04:33.449Z,8.13
2018-11-20T08:07:28.968Z,7.43
2018-11-20T08:10:33.107Z,7.57
2018-11-20T08:13:49.034Z,6.67
2018-11-20T08:16:43.536Z,8.27
2018-11-20T08:19:43.630Z,8.27
2018-11-20T08:22:33.684Z,9.57
2018-11-20T08:25:23.720Z,7.83
2018-11-20T08:28:21.243Z,8.67
2018-11-20T08:31:13.534Z,7.80
2018-11-20T08:34:01.649Z,8.23
2018-11-20T08:36:54.355Z,7.40
2018-11-20T08:39:55.839Z,7.30
2018-11-20T08:43:00.768Z,7.50
2018-11-20T08:45:53.380Z,7.13
2018-11-20T08:48:45.546Z,6.47
2018-11-20T08:51:47.199Z,6.67
2018-11-20T08:54:30.229Z,6.63
2018-11-20T08:57:38.300Z,6.30
2018-11-20T09:00:27.260Z,7.33
2018-11-20T09:03:16.958Z,6.33
2018-11-20T09:06:11.229Z,6.53
2018-11-20T09:09:06.660Z,5.57
2018-11-20T09:11:54.864Z,6.13
2018-11-20T09:14:44.574Z,7.63
2018-11-20T09:17:52.186Z,7.70
2018-11-20T09:20:40.275Z,7.43
2018-11-20T09:23:29.890Z,7.63
2018-11-20T09:26:25.544Z,7.13
2018-11-20T09:29:09.327Z,8.13
2018-11-20T09:32:14.120Z,7.60
2018-11-20T09:35:12.445Z,7.70
2018-11-20T09:38:04.934Z,6.50
2018-11-20T09:41:16.257Z,6.43
2018-11-20T09:44:17.500Z,6.10
2018-11-20T09:47:16.023Z,7.20
2018-11-20T09:50:03.954Z,6.47
2018-11-20T09:52:52.110Z,7.40
2018-11-20T09:55:37.504Z,7.40
2018-11-20T09:58:32.835Z,9.13
2018-11-20T10:01:25.358Z,8.80
2018-11-20T10:04:27.410Z,7.70
2018-11-20T10:07:15.492Z,7.83
2018-11-20T10:10:07.724Z,6.93
2018-11-20T10:13:12.323Z,6.40
2018-11-20T10:16:08.103Z,5.20
2018-11-20T10:19:12.513Z,6.23
2018-11-20T10:22:00.825Z,5.97
2018-11-20T10:24:43.215Z,7.10
2018-11-20T10:27:41.568Z,7.60
2018-11-20T10:30:30.573Z,7.87
2018-11-20T10:33:26.024Z,8.07
2018-11-20T10:36:06.543Z,6.77
2018-11-20T10:38:56.185Z,7.67
2018-11-20T10:41:45.909Z,7.67
2018-11-20T10:44:34.116Z,8.27
2018-11-20T10:47:22.212Z,7.97
2018-11-20T10:50:10.052Z,7.23
2018-11-20T10:52:54.209Z,6.50
2018-11-20T10:55:52.442Z,6.50
2018-11-20T10:58:33.712Z,6.57
2018-11-20T11:01:41.571Z,6.20
2018-11-20T11:04:31.946Z,5.83
2018-11-20T11:07:25.057Z,5.30
2018-11-20T11:10:20.494Z,6.50
2018-11-20T11:13:08.772Z,6.27
2018-11-20T11:15:57.092Z,6.53
2018-11-20T11:18:44.874Z,7.80
2018-11-20T11:21:40.377Z,8.53
2018-11-20T11:24:36.242Z,7.27
2018-11-20T11:27:31.673Z,7.73
2018-11-20T11:30:12.131Z,6.80
2018-11-20T11:33:00.413Z,7.27
2018-11-20T11:35:58.901Z,8.37
2018-11-20T11:38:59.726Z,8.43
2018-11-20T11:41:44.702Z,8.03
2018-11-20T11:44:49.645Z,8.10
2018-11-20T11:47:37.899Z,8.27
2018-11-20T11:50:26.066Z,9.17
2018-11-20T11:53:13.874Z,9.37
2018-11-20T11:56:02.388Z,9.47
2018-11-20T11:58:44.865Z,9.07
2018-11-20T12:04:21.385Z,8.03
2018-11-20T12:07:13.726Z,7.93
2018-11-20T12:10:01.709Z,8.87
2018-11-20T12:13:01.100Z,10.53
2018-11-20T12:16:04.748Z,11.03
2018-11-20T12:19:00.563Z,11.73
2018-11-20T12:21:59.548Z,10.60
2018-11-20T12:24:47.543Z,11.07
2018-11-20T12:27:49.181Z,11.13
2018-11-20T12:30:38.895Z,9.30
2018-11-20T12:33:24.009Z,11.00
2018-11-20T12:36:25.209Z,11.93
2018-11-20T12:39:14.258Z,10.33
2018-11-20T12:42:04.869Z,9.23
2018-11-20T12:45:02.808Z,7.67
2018-11-20T12:47:50.743Z,8.53
2018-11-20T12:50:38.879Z,6.87
2018-11-20T12:53:21.472Z,7.17
2018-11-20T12:56:09.018Z,7.87
2018-11-20T12:58:56.962Z,6.10
2018-11-20T13:01:58.455Z,7.00
2018-11-20T13:04:49.919Z,7.20
2018-11-20T13:07:40.795Z,5.37
2018-11-20T13:10:28.784Z,6.53
2018-11-20T13:13:27.396Z,5.87
2018-11-20T13:16:07.264Z,5.63
2018-11-20T13:18:56.896Z,6.10
2018-11-20T13:22:04.999Z,5.40
2018-11-20T13:25:03.518Z,6.47
2018-11-20T13:27:51.687Z,5.77
2018-11-20T13:30:47.104Z,5.17
2018-11-20T13:33:37.028Z,6.00
2018-11-20T13:36:25.426Z,5.30
2018-11-20T13:39:14.083Z,5.37
2018-11-20T13:42:01.908Z,5.10
2018-11-20T13:44:52.470Z,5.17
2018-11-20T13:47:52.355Z,5.60
2018-11-20T13:50:39.485Z,5.07
2018-11-20T13:53:36.210Z,5.23
2018-11-20T13:56:28.756Z,4.50
2018-11-20T13:59:21.024Z,3.83
2018-11-20T14:02:10.863Z,3.87
2018-11-20T14:05:11.777Z,4.80
2018-11-20T14:08:00.548Z,4.63
2018-11-20T14:11:02.396Z,6.27
2018-11-20T14:13:57.464Z,4.27
2018-11-20T14:16:58.910Z,3.03
2018-11-20T14:19:41.532Z,3.70
2018-11-20T14:22:23.207Z,4.13
2018-11-20T14:25:25.627Z,4.40
2018-11-20T14:28:07.332Z,4.00
2018-11-20T14:30:55.372Z,4.90
2018-11-20T14:34:00.067Z,3.60
2018-11-20T14:36:48.277Z,5.23
2018-11-20T14:39:39.845Z,3.30
2018-11-20T14:42:43.928Z,3.50
2018-11-20T14:45:34.632Z,4.23
2018-11-20T14:48:27.454Z,3.63
2018-11-20T14:51:15.092Z,3.37
2018-11-20T14:54:17.928Z,5.17
2018-11-20T14:57:23.917Z,5.73
2018-11-20T15:00:28.143Z,5.83
2018-11-20T15:03:53.294Z,5.17
2018-11-20T15:06:42.138Z,5.43
2018-11-20T15:09:50.153Z,4.63
2018-11-20T15:12:42.841Z,6.70
2018-11-20T15:15:54.138Z,6.23
2018-11-20T15:18:52.381Z,5.57
2018-11-20T15:21:42.157Z,5.83
2018-11-20T15:24:30.499Z,3.60
2018-11-20T15:27:22.734Z,5.03
2018-11-20T15:30:11.093Z,4.23
2018-11-20T15:32:59.185Z,5.50
2018-11-20T15:36:00.525Z,3.77
2018-11-20T15:38:46.164Z,3.83
2018-11-20T15:41:38.594Z,3.00
2018-11-20T15:44:40.178Z,3.30
2018-11-20T15:47:28.961Z,4.63
2018-11-20T15:50:17.817Z,3.50
2018-11-20T15:53:05.075Z,3.37
2018-11-20T15:56:03.731Z,3.10
2018-11-20T15:58:50.088Z,3.30
2018-11-20T16:01:44.861Z,3.83
2018-11-20T16:04:56.991Z,3.53
2018-11-20T16:07:56.016Z,4.03
2018-11-20T16:10:56.139Z,2.60
2018-11-20T16:13:44.359Z,8.27
2018-11-20T16:16:37.313Z,3.57
2018-11-20T16:19:43.048Z,3.07
2018-11-20T16:22:31.847Z,3.50
2018-11-20T16:25:20.619Z,4.07
2018-11-20T16:28:09.357Z,6.27
2018-11-20T16:31:14.088Z,2.30
2018-11-20T16:34:16.453Z,2.95
2018-11-20T16:37:20.911Z,3.92
2018-11-20T16:40:09.398Z,4.25
2018-11-20T16:43:02.283Z,3.02
2018-11-20T16:46:01.009Z,2.62
2018-11-20T16:48:53.455Z,2.17
2018-11-20T16:51:49.020Z,2.83
2018-11-20T16:54:37.991Z,4.10
2018-11-20T16:57:24.686Z,2.08
2018-11-20T17:00:13.311Z,2.80
2018-11-20T17:03:13.245Z,3.30
2018-11-20T17:06:06.080Z,3.60
2018-11-20T17:08:56.129Z,2.63
2018-11-20T17:11:44.033Z,3.00
2018-11-20T17:14:37.158Z,3.77
2018-11-20T17:17:26.771Z,3.30
2018-11-20T17:20:14.924Z,2.80
2018-11-20T17:23:02.904Z,3.60
2018-11-20T17:25:49.799Z,3.00
2018-11-20T17:28:38.073Z,2.97
2018-11-20T17:31:36.839Z,3.17
2018-11-20T17:34:26.473Z,2.97
2018-11-20T17:37:18.579Z,2.47
2018-11-20T17:39:59.885Z,3.20
2018-11-20T17:42:45.651Z,2.80
2018-11-20T17:45:50.287Z,3.30
2018-11-20T17:48:43.000Z,3.08
2018-11-20T17:51:50.599Z,5.10
2018-11-20T17:54:39.553Z,3.63
2018-11-20T17:57:44.788Z,3.47
2018-11-20T18:00:32.908Z,2.87
2018-11-20T18:03:22.702Z,3.12
2018-11-20T18:06:18.241Z,2.42
2018-11-20T18:09:06.929Z,3.05
2018-11-20T18:12:12.312Z,2.95
2018-11-20T18:15:10.756Z,2.85
2018-11-20T18:17:59.477Z,2.35
2018-11-20T18:20:54.792Z,2.92
2018-11-20T18:23:44.675Z,2.40
2018-11-20T18:26:44.023Z,2.10
2018-11-20T18:29:31.347Z,2.62
2018-11-20T18:32:23.700Z,3.10
2018-11-20T18:35:15.599Z,5.17
2018-11-20T18:38:14.452Z,2.83
2018-11-20T18:41:02.422Z,3.08
2018-11-20T18:43:54.887Z,2.42
2018-11-20T18:46:53.746Z,3.27
2018-11-20T18:49:47.487Z,2.43
2018-11-20T18:52:40.213Z,2.67
2018-11-20T18:55:31.727Z,2.92
2018-11-20T18:58:19.974Z,2.27
2018-11-20T19:01:08.109Z,3.70
2018-11-20T19:03:49.511Z,2.97
2018-11-20T19:06:48.486Z,3.27
2018-11-20T19:09:40.362Z,2.87
2018-11-20T19:12:28.367Z,3.77
2018-11-20T19:15:16.702Z,3.13
2018-11-20T19:18:09.915Z,3.55
2018-11-20T19:20:59.668Z,2.52
2018-11-20T19:23:47.788Z,2.57
2018-11-20T19:26:36.219Z,2.90
2018-11-20T19:29:34.826Z,5.42
2018-11-20T19:32:16.507Z,4.10
2018-11-20T19:35:00.656Z,3.30
2018-11-20T19:38:07.511Z,4.20
2018-11-20T19:41:30.651Z,5.62
2018-11-20T19:44:38.672Z,3.83
2018-11-20T19:47:46.107Z,3.00
2018-11-20T19:50:36.483Z,2.77
2018-11-20T19:53:17.336Z,2.33
2018-11-20T19:56:05.689Z,2.83
2018-11-20T19:59:03.570Z,2.42
2018-11-20T20:01:59.624Z,2.60
2018-11-20T20:05:01.292Z,3.00
2018-11-20T20:07:54.770Z,2.77
2018-11-20T20:10:57.361Z,4.27
2018-11-20T20:13:50.250Z,2.60
2018-11-20T20:16:52.565Z,3.10
2018-11-20T20:19:42.363Z,3.47
2018-11-20T20:22:43.147Z,3.33
2018-11-20T20:25:31.719Z,4.20
2018-11-20T20:28:20.114Z,3.65
2018-11-20T20:31:11.698Z,3.40
2018-11-20T20:34:09.476Z,3.13
2018-11-20T20:37:02.880Z,3.60
2018-11-20T20:39:51.032Z,2.93
2018-11-20T20:42:52.597Z,4.40
2018-11-20T20:45:45.023Z,6.17
2018-11-20T20:48:43.921Z,3.60
2018-11-20T20:51:32.062Z,11.13
2018-11-20T20:54:20.875Z,4.23
2018-11-20T20:57:03.270Z,5.72
2018-11-20T21:00:10.039Z,4.50
2018-11-20T21:02:52.383Z,3.27
2018-11-20T21:05:48.680Z,3.80
2018-11-20T21:08:53.240Z,4.63
2018-11-20T21:11:42.920Z,2.80
2018-11-20T21:14:42.561Z,2.77
2018-11-20T21:17:30.837Z,3.50
2018-11-20T21:20:20.386Z,3.37
2018-11-20T21:23:19.601Z,2.90
2018-11-20T21:26:12.610Z,4.03
2018-11-20T21:29:18.564Z,4.33
2018-11-20T21:32:23.093Z,3.97
2018-11-20T21:35:13.331Z,4.63
2018-11-20T21:38:10.857Z,3.60
2018-11-20T21:41:01.111Z,2.73
2018-11-20T21:43:48.916Z,3.17
2018-11-20T21:46:48.034Z,3.60
2018-11-20T21:49:48.302Z,3.13
2018-11-20T21:52:49.846Z,3.20
2018-11-20T21:55:48.752Z,4.77
2018-11-20T21:58:47.933Z,4.30
2018-11-20T22:01:36.630Z,6.90
2018-11-20T22:04:33.800Z,6.40
2018-11-20T22:07:13.475Z,5.00
2018-11-20T22:10:02.442Z,9.60
2018-11-20T22:12:50.874Z,4.73
2018-11-20T22:15:39.244Z,4.00
2018-11-20T22:18:43.689Z,3.60
2018-11-20T22:21:48.315Z,3.30
2018-11-20T22:24:53.110Z,3.40
2018-11-20T22:27:43.179Z,3.30
2018-11-20T22:30:42.081Z,3.83
2018-11-20T22:33:37.055Z,3.50
2018-11-20T22:36:37.328Z,3.53
2018-11-20T22:39:34.858Z,3.30
2018-11-20T22:42:32.103Z,3.40
2018-11-20T22:45:14.428Z,3.67
2018-11-20T22:48:12.441Z,3.33
2018-11-20T22:51:01.493Z,3.03
2018-11-20T22:53:58.207Z,3.30
2018-11-20T22:56:50.849Z,3.13
2018-11-20T22:59:32.584Z,4.13
2018-11-20T23:02:30.368Z,3.50
2018-11-20T23:05:16.568Z,2.80
2018-11-20T23:07:53.212Z,3.33
2018-11-20T23:10:25.450Z,3.13
2018-11-20T23:12:56.762Z,3.63
2018-11-20T23:15:28.019Z,3.50
2018-11-20T23:17:59.240Z,3.50
2018-11-20T23:20:30.368Z,4.20
2018-11-20T23:23:03.094Z,3.47
2018-11-20T23:25:34.509Z,2.97
2018-11-20T23:28:05.636Z,3.67
2018-11-20T23:30:36.787Z,4.27
2018-11-20T23:33:08.624Z,3.63
2018-11-20T23:35:39.762Z,3.83
2018-11-20T23:38:10.914Z,5.23
2018-11-20T23:40:42.072Z,6.83
2018-11-20T23:43:13.215Z,7.23
2018-11-20T23:45:44.362Z,6.63
2018-11-20T23:48:15.419Z,6.53
2018-11-20T23:50:46.531Z,7.33
2018-11-20T23:53:17.650Z,8.70
2018-11-20T23:55:48.797Z,7.63
2018-11-20T23:58:19.863Z,5.77
